createdAt,value
2023-02-05T00:02:00.897Z,36.47
2023-02-05T00:04:30.672Z,36.05
2023-02-05T00:06:58.884Z,35.63
2023-02-05T00:09:28.556Z,34.88
2023-02-05T00:11:56.809Z,34.28
2023-02-05T00:14:25.350Z,35.65
2023-02-05T00:16:53.796Z,36.47
2023-02-05T00:19:22.219Z,34.95
2023-02-05T00:21:51.907Z,35.75
2023-02-05T00:24:20.274Z,33.58
2023-02-05T00:26:48.534Z,33.58
2023-02-05T00:29:16.757Z,32.42
2023-02-05T00:31:45.189Z,32.50
2023-02-05T00:34:13.664Z,31.65
2023-02-05T00:36:41.938Z,32.28
2023-02-05T00:39:14.358Z,31.42
2023-02-05T00:41:42.616Z,31.05
2023-02-05T00:44:10.872Z,30.13
2023-02-05T00:46:39.395Z,30.23
2023-02-05T00:49:08.293Z,29.60
2023-02-05T00:51:36.473Z,29.23
2023-02-05T00:54:04.853Z,30.13
2023-02-05T00:56:34.624Z,28.38
2023-02-05T00:59:03.273Z,28.95
2023-02-05T01:01:31.828Z,29.13
2023-02-05T01:04:00.213Z,28.15
2023-02-05T01:06:28.461Z,26.88
2023-02-05T01:08:57.065Z,25.83
2023-02-05T01:11:25.532Z,25.90
2023-02-05T01:13:55.162Z,25.75
2023-02-05T01:16:23.494Z,27.58
2023-02-05T01:18:53.180Z,26.20
2023-02-05T01:21:21.499Z,25.17
2023-02-05T01:23:49.976Z,25.23
2023-02-05T01:26:18.382Z,24.58
2023-02-05T01:28:47.204Z,23.35
2023-02-05T01:31:17.288Z,20.92
2023-02-05T01:33:45.789Z,22.95
2023-02-05T01:36:14.178Z,22.40
2023-02-05T01:38:42.527Z,22.40
2023-02-05T01:41:12.354Z,21.38
2023-02-05T01:43:40.769Z,20.85
2023-02-05T01:46:25.625Z,20.58
2023-02-05T01:48:55.092Z,19.83
2023-02-05T01:51:23.218Z,21.20
2023-02-05T01:53:51.335Z,20.10
2023-02-05T01:56:22.292Z,19.88
2023-02-05T01:58:52.760Z,19.77
2023-02-05T02:01:20.959Z,19.65
2023-02-05T02:03:50.870Z,19.02
2023-02-05T02:06:19.109Z,19.27
2023-02-05T02:08:47.238Z,18.77
2023-02-05T02:11:17.247Z,19.48
2023-02-05T02:13:45.678Z,18.25
2023-02-05T02:16:13.804Z,19.00
2023-02-05T02:18:42.388Z,19.13
2023-02-05T02:21:45.828Z,19.40
2023-02-05T02:24:35.636Z,19.10
2023-02-05T02:27:12.806Z,18.73
2023-02-05T02:29:44.357Z,18.33
2023-02-05T02:32:15.601Z,17.75
2023-02-05T02:34:46.285Z,17.80
2023-02-05T02:37:16.174Z,17.60
2023-02-05T02:39:46.031Z,18.42
2023-02-05T02:42:16.512Z,17.10
2023-02-05T02:44:47.884Z,15.18
2023-02-05T02:47:17.645Z,15.15
2023-02-05T02:49:48.450Z,14.65
2023-02-05T02:52:17.801Z,16.23
2023-02-05T02:54:47.894Z,15.63
2023-02-05T02:57:17.981Z,15.63
2023-02-05T02:59:47.559Z,15.88
2023-02-05T03:02:17.024Z,15.52
2023-02-05T03:04:46.898Z,15.48
2023-02-05T03:07:17.621Z,15.32
2023-02-05T03:09:50.260Z,15.52
2023-02-05T03:12:19.714Z,15.73
2023-02-05T03:14:49.170Z,15.05
2023-02-05T03:17:19.808Z,16.23
2023-02-05T03:19:51.924Z,14.32
2023-02-05T03:22:20.300Z,15.18
2023-02-05T03:24:48.348Z,15.02
2023-02-05T03:27:16.531Z,15.63
2023-02-05T03:29:45.696Z,14.48
2023-02-05T03:32:25.902Z,13.98
2023-02-05T03:35:00.699Z,13.82
2023-02-05T03:37:34.056Z,15.63
2023-02-05T03:40:08.342Z,13.90
2023-02-05T03:42:41.238Z,13.55
2023-02-05T03:45:23.016Z,15.30
2023-02-05T03:48:05.660Z,13.88
2023-02-05T03:50:37.292Z,13.43
2023-02-05T03:53:07.908Z,14.05
2023-02-05T03:55:39.416Z,12.75
2023-02-05T03:58:09.984Z,13.48
2023-02-05T04:00:38.177Z,13.13
2023-02-05T04:03:07.653Z,13.00
2023-02-05T04:05:37.457Z,12.27
2023-02-05T04:08:06.289Z,12.23
2023-02-05T04:10:41.329Z,11.75
2023-02-05T04:13:10.518Z,10.15
2023-02-05T04:15:40.489Z,11.55
2023-02-05T04:18:12.430Z,10.75
2023-02-05T04:20:40.738Z,10.45
2023-02-05T04:23:10.414Z,10.57
2023-02-05T04:25:40.158Z,11.32
2023-02-05T04:28:11.527Z,11.07
2023-02-05T04:30:40.643Z,10.40
2023-02-05T04:33:13.160Z,10.60
2023-02-05T04:35:41.989Z,10.35
2023-02-05T04:38:10.533Z,10.57
2023-02-05T04:40:38.889Z,9.95
2023-02-05T04:43:07.217Z,9.77
2023-02-05T04:45:37.062Z,9.70
2023-02-05T04:48:06.761Z,10.30
2023-02-05T04:50:36.416Z,10.80
2023-02-05T04:53:04.643Z,10.60
2023-02-05T04:55:33.308Z,10.38
2023-02-05T04:58:01.597Z,9.98
2023-02-05T05:00:29.662Z,9.95
2023-02-05T05:02:58.253Z,10.32
2023-02-05T05:05:26.285Z,9.98
2023-02-05T05:07:55.804Z,9.52
2023-02-05T05:10:23.870Z,9.57
2023-02-05T05:12:53.231Z,9.73
2023-02-05T05:15:21.368Z,9.10
2023-02-05T05:17:49.561Z,9.48
2023-02-05T05:20:18.280Z,9.38
2023-02-05T05:22:46.377Z,9.27
2023-02-05T05:25:16.049Z,9.18
2023-02-05T05:27:44.240Z,9.32
2023-02-05T05:30:13.560Z,9.55
2023-02-05T05:32:41.674Z,8.60
2023-02-05T05:35:09.974Z,9.27
2023-02-05T05:37:38.098Z,8.73
2023-02-05T05:40:24.339Z,8.55
2023-02-05T05:43:11.136Z,8.45
2023-02-05T05:45:39.277Z,7.68
2023-02-05T05:48:09.097Z,7.88
2023-02-05T05:50:37.282Z,8.68
2023-02-05T05:53:05.421Z,8.10
2023-02-05T05:55:33.811Z,8.88
2023-02-05T05:58:03.361Z,8.02
2023-02-05T06:00:31.519Z,8.18
2023-02-05T06:02:59.688Z,8.63
2023-02-05T06:05:27.781Z,7.93
2023-02-05T06:07:55.829Z,8.27
2023-02-05T06:10:24.344Z,7.60
2023-02-05T06:12:53.156Z,7.82
2023-02-05T06:15:23.180Z,7.53
2023-02-05T06:17:51.371Z,8.13
2023-02-05T06:20:19.909Z,7.70
2023-02-05T06:22:48.262Z,7.15
2023-02-05T06:25:17.260Z,7.35
2023-02-05T06:27:48.302Z,7.55
2023-02-05T06:30:16.663Z,7.22
2023-02-05T06:32:46.531Z,7.60
2023-02-05T06:35:15.012Z,7.35
2023-02-05T06:37:47.537Z,6.82
2023-02-05T06:40:18.357Z,6.97
2023-02-05T06:42:46.833Z,7.07
2023-02-05T06:45:16.024Z,6.50
2023-02-05T06:47:46.216Z,6.68
2023-02-05T06:50:14.553Z,6.45
2023-02-05T06:52:42.677Z,6.50
2023-02-05T06:55:10.897Z,6.45
2023-02-05T06:57:39.017Z,6.57
2023-02-05T07:00:08.247Z,6.00
2023-02-05T07:02:36.421Z,6.78
2023-02-05T07:05:05.987Z,6.10
2023-02-05T07:07:34.465Z,5.90
2023-02-05T07:10:02.498Z,6.25
2023-02-05T07:12:30.718Z,7.45
2023-02-05T07:14:58.803Z,8.30
2023-02-05T07:17:27.176Z,8.68
2023-02-05T07:19:55.337Z,8.25
2023-02-05T07:22:24.897Z,9.60
2023-02-05T07:24:53.085Z,10.55
2023-02-05T07:27:21.148Z,10.40
2023-02-05T07:29:49.392Z,11.38
2023-02-05T07:32:17.620Z,13.52
2023-02-05T07:34:45.764Z,13.30
2023-02-05T07:37:14.349Z,15.05
2023-02-05T07:39:43.819Z,21.42
2023-02-05T07:42:12.339Z,23.35
2023-02-05T07:44:52.123Z,22.38
2023-02-05T07:47:20.260Z,23.60
2023-02-05T07:49:48.355Z,25.30
2023-02-05T07:52:16.413Z,25.73
2023-02-05T07:54:45.863Z,24.42
2023-02-05T07:57:13.965Z,25.90
2023-02-05T07:59:42.005Z,23.77
2023-02-05T08:02:10.728Z,22.95
2023-02-05T08:04:38.761Z,24.15
2023-02-05T08:07:06.881Z,25.35
2023-02-05T08:09:34.934Z,26.67
2023-02-05T08:12:04.602Z,23.92
2023-02-05T08:14:32.835Z,29.00
2023-02-05T08:17:01.979Z,32.38
2023-02-05T08:19:30.260Z,32.33
2023-02-05T08:21:58.847Z,30.65
2023-02-05T08:24:27.366Z,31.35
2023-02-05T08:26:55.448Z,31.45
2023-02-05T08:29:26.506Z,30.85
2023-02-05T08:31:54.815Z,28.10
2023-02-05T08:34:22.869Z,27.58
2023-02-05T08:36:50.992Z,26.90
2023-02-05T08:39:19.008Z,27.73
2023-02-05T08:41:47.121Z,27.08
2023-02-05T08:44:15.176Z,28.88
2023-02-05T08:46:50.117Z,30.80
2023-02-05T08:49:18.897Z,25.25
2023-02-05T08:51:46.948Z,24.45
2023-02-05T08:54:15.529Z,27.27
2023-02-05T08:56:43.855Z,27.98
2023-02-05T08:59:12.308Z,34.47
2023-02-05T09:01:41.598Z,33.15
2023-02-05T09:04:12.605Z,32.80
2023-02-05T09:06:43.832Z,31.23
2023-02-05T09:09:12.159Z,32.80
2023-02-05T09:11:40.513Z,34.22
2023-02-05T09:14:08.722Z,35.75
2023-02-05T09:16:36.967Z,34.10
2023-02-05T09:19:05.442Z,33.42
2023-02-05T09:21:35.102Z,33.78
2023-02-05T09:24:03.560Z,32.75
2023-02-05T09:26:31.804Z,32.28
2023-02-05T09:29:00.048Z,35.05
2023-02-05T09:31:28.632Z,34.38
2023-02-05T09:33:57.444Z,35.90
2023-02-05T09:36:27.249Z,38.67
2023-02-05T09:39:13.472Z,38.00
2023-02-05T09:41:48.471Z,38.10
2023-02-05T09:44:18.804Z,37.08
2023-02-05T09:46:50.458Z,36.25
2023-02-05T09:49:19.712Z,37.78
2023-02-05T09:51:49.497Z,35.92
2023-02-05T09:54:20.829Z,36.38
2023-02-05T09:56:50.654Z,36.22
2023-02-05T09:59:21.064Z,37.22
2023-02-05T10:01:51.231Z,36.13
2023-02-05T10:04:19.627Z,34.67
2023-02-05T10:07:01.427Z,33.53
2023-02-05T10:09:41.210Z,33.03
2023-02-05T10:12:16.087Z,28.30
2023-02-05T10:14:49.896Z,27.95
2023-02-05T10:17:29.569Z,28.05
2023-02-05T10:20:15.657Z,29.23
2023-02-05T10:22:48.751Z,28.30
2023-02-05T10:25:36.504Z,27.48
2023-02-05T10:28:07.260Z,25.65
2023-02-05T10:30:38.140Z,25.50
2023-02-05T10:33:08.338Z,24.92
2023-02-05T10:35:42.458Z,25.13
2023-02-05T10:38:12.418Z,24.23
2023-02-05T10:40:44.117Z,23.80
2023-02-05T10:43:19.071Z,23.73
2023-02-05T10:45:47.152Z,22.67
2023-02-05T10:48:25.037Z,23.23
2023-02-05T10:50:56.512Z,21.98
2023-02-05T10:53:26.319Z,21.90
2023-02-05T10:55:55.762Z,22.60
2023-02-05T10:58:42.423Z,21.67
2023-02-05T11:01:15.005Z,21.25
2023-02-05T11:03:50.551Z,20.58
2023-02-05T11:06:18.693Z,21.02
2023-02-05T11:08:47.237Z,19.70
2023-02-05T11:11:23.315Z,19.25
2023-02-05T11:13:54.053Z,20.45
2023-02-05T11:16:22.241Z,19.83
2023-02-05T11:18:57.490Z,20.65
2023-02-05T11:21:25.684Z,18.90
2023-02-05T11:23:57.265Z,18.65
2023-02-05T11:26:28.148Z,18.02
2023-02-05T11:28:56.222Z,17.35
2023-02-05T11:31:26.532Z,17.70
2023-02-05T11:34:10.582Z,17.85
2023-02-05T11:36:39.342Z,17.15
2023-02-05T11:39:07.730Z,17.30
2023-02-05T11:41:49.246Z,16.33
2023-02-05T11:44:19.425Z,16.88
2023-02-05T11:46:47.642Z,16.75
2023-02-05T11:49:21.936Z,16.30
2023-02-05T11:51:54.220Z,15.73
2023-02-05T11:54:23.500Z,16.10
2023-02-05T11:57:03.646Z,15.52
2023-02-05T11:59:31.960Z,15.25
2023-02-05T12:02:28.523Z,14.38
2023-02-05T12:04:59.008Z,13.55
2023-02-05T12:07:27.203Z,13.55
2023-02-05T12:09:59.367Z,14.20
2023-02-05T12:12:31.824Z,15.55
2023-02-05T12:15:08.594Z,15.48
2023-02-05T12:17:41.428Z,15.68
2023-02-05T12:20:17.755Z,16.42
2023-02-05T12:23:07.659Z,16.80
2023-02-05T12:25:37.927Z,17.98
2023-02-05T12:28:18.047Z,17.70
2023-02-05T12:30:52.485Z,18.10
2023-02-05T12:33:29.976Z,18.90
2023-02-05T12:36:03.155Z,18.02
2023-02-05T12:38:39.348Z,18.75
2023-02-05T12:41:13.831Z,18.75
2023-02-05T12:43:45.229Z,19.65
2023-02-05T12:46:28.832Z,21.30
2023-02-05T12:49:06.386Z,22.20
2023-02-05T12:51:44.461Z,26.40
2023-02-05T12:54:25.888Z,25.40
2023-02-05T12:56:57.223Z,26.80
2023-02-05T12:59:32.976Z,26.48
2023-02-05T13:02:02.758Z,27.85
2023-02-05T13:04:33.808Z,28.25
2023-02-05T13:07:08.521Z,28.52
2023-02-05T13:09:40.304Z,28.65
2023-02-05T13:12:09.939Z,24.38
2023-02-05T13:14:40.866Z,25.20
2023-02-05T13:17:18.547Z,24.30
2023-02-05T13:19:48.440Z,23.67
2023-02-05T13:22:35.693Z,23.08
2023-02-05T13:25:30.071Z,23.92
2023-02-05T13:28:31.399Z,23.70
2023-02-05T13:31:01.365Z,23.60
2023-02-05T13:33:29.739Z,23.20
2023-02-05T13:36:01.728Z,22.92
2023-02-05T13:38:40.106Z,23.27
2023-02-05T13:41:26.766Z,22.90
2023-02-05T13:44:20.309Z,22.38
2023-02-05T13:47:24.065Z,22.00
2023-02-05T13:50:21.985Z,21.88
2023-02-05T13:53:23.146Z,21.25
2023-02-05T13:56:18.797Z,21.92
2023-02-05T13:58:47.238Z,21.83
2023-02-05T14:01:18.025Z,22.55
2023-02-05T14:03:56.303Z,21.10
2023-02-05T14:06:31.163Z,20.25
2023-02-05T14:09:04.061Z,19.88
2023-02-05T14:11:44.754Z,19.70
2023-02-05T14:14:32.010Z,19.90
2023-02-05T14:17:00.494Z,19.45
2023-02-05T14:19:44.253Z,18.50
2023-02-05T14:22:14.388Z,17.80
2023-02-05T14:24:49.858Z,17.42
2023-02-05T14:27:47.017Z,17.13
2023-02-05T14:30:47.596Z,17.33
2023-02-05T14:33:39.186Z,17.63
2023-02-05T14:36:33.276Z,16.45
2023-02-05T14:39:04.511Z,17.13
2023-02-05T14:41:36.084Z,16.92
2023-02-05T14:44:05.025Z,17.70
2023-02-05T14:46:35.589Z,18.20
2023-02-05T14:49:05.208Z,17.90
2023-02-05T14:51:40.340Z,17.20
2023-02-05T14:54:15.795Z,15.57
2023-02-05T14:56:46.878Z,15.15
2023-02-05T14:59:21.523Z,15.20
2023-02-05T15:01:54.469Z,14.73
2023-02-05T15:04:28.628Z,14.88
2023-02-05T15:06:57.368Z,14.80
2023-02-05T15:09:38.411Z,14.23
2023-02-05T15:12:22.320Z,14.48
2023-02-05T15:14:53.828Z,14.00
2023-02-05T15:17:44.884Z,14.15
2023-02-05T15:20:20.110Z,13.93
2023-02-05T15:22:50.981Z,13.18
2023-02-05T15:25:29.630Z,13.63
2023-02-05T15:27:59.207Z,12.68
2023-02-05T15:30:28.889Z,13.20
2023-02-05T15:33:00.396Z,12.63
2023-02-05T15:35:29.996Z,12.35
2023-02-05T15:37:59.996Z,12.63
2023-02-05T15:40:31.687Z,12.63
2023-02-05T15:43:01.241Z,11.90
2023-02-05T15:45:30.335Z,12.00
2023-02-05T15:48:00.384Z,11.70
2023-02-05T15:50:28.675Z,11.50
2023-02-05T15:52:57.073Z,10.70
2023-02-05T15:55:26.887Z,10.55
2023-02-05T15:57:57.587Z,10.48
2023-02-05T16:00:28.048Z,11.93
2023-02-05T16:02:57.512Z,10.95
2023-02-05T16:05:26.399Z,11.30
2023-02-05T16:07:58.265Z,10.98
2023-02-05T16:10:27.559Z,11.15
2023-02-05T16:13:01.247Z,11.27
2023-02-05T16:15:31.822Z,10.68
2023-02-05T16:18:00.039Z,11.10
2023-02-05T16:20:29.219Z,11.10
2023-02-05T16:22:58.205Z,11.48
2023-02-05T16:25:38.812Z,11.02
2023-02-05T16:28:19.308Z,11.25
2023-02-05T16:30:47.769Z,11.60
2023-02-05T16:33:22.314Z,11.05
2023-02-05T16:35:50.668Z,10.80
2023-02-05T16:38:20.009Z,11.00
2023-02-05T16:40:49.669Z,11.27
2023-02-05T16:43:21.900Z,12.95
2023-02-05T16:46:21.836Z,13.27
2023-02-05T16:48:51.075Z,14.80
2023-02-05T16:51:31.813Z,21.08
2023-02-05T16:54:00.846Z,18.00
2023-02-05T16:56:29.961Z,18.50
2023-02-05T16:59:02.625Z,19.17
2023-02-05T17:01:32.684Z,20.42
2023-02-05T17:04:00.886Z,21.13
2023-02-05T17:06:33.737Z,20.48
2023-02-05T17:09:01.954Z,20.17
2023-02-05T17:11:35.387Z,19.90
2023-02-05T17:14:23.408Z,19.60
2023-02-05T17:16:55.645Z,19.38
2023-02-05T17:19:25.215Z,19.58
2023-02-05T17:22:23.280Z,20.95
2023-02-05T17:24:52.106Z,22.70
2023-02-05T17:27:23.336Z,24.67
2023-02-05T17:29:54.304Z,25.38
2023-02-05T17:32:22.747Z,29.25
2023-02-05T17:34:51.025Z,32.35
2023-02-05T17:37:19.481Z,31.90
2023-02-05T17:39:47.722Z,34.03
2023-02-05T17:42:22.838Z,34.28
2023-02-05T17:44:53.264Z,35.08
2023-02-05T17:47:21.476Z,34.75
2023-02-05T17:49:49.712Z,36.22
2023-02-05T17:52:18.223Z,34.38
2023-02-05T17:54:46.625Z,33.90
2023-02-05T17:57:17.216Z,33.63
2023-02-05T17:59:48.262Z,34.20
2023-02-05T18:02:18.105Z,33.90
2023-02-05T18:04:47.006Z,30.98
2023-02-05T18:07:19.934Z,28.92
2023-02-05T18:09:48.120Z,28.45
2023-02-05T18:12:16.310Z,27.70
2023-02-05T18:14:44.480Z,27.52
2023-02-05T18:17:12.649Z,27.98
2023-02-05T18:19:42.304Z,26.73
2023-02-05T18:22:10.629Z,28.20
2023-02-05T18:24:39.307Z,26.10
2023-02-05T18:27:08.685Z,26.83
2023-02-05T18:29:36.986Z,27.55
2023-02-05T18:32:05.127Z,28.23
2023-02-05T18:34:33.378Z,27.55
2023-02-05T18:37:02.983Z,27.70
2023-02-05T18:39:31.560Z,29.90
2023-02-05T18:42:00.157Z,30.05
2023-02-05T18:44:28.691Z,31.20
2023-02-05T18:46:56.813Z,33.35
2023-02-05T18:49:25.060Z,30.63
2023-02-05T18:51:53.258Z,31.00
2023-02-05T18:54:22.776Z,29.80
2023-02-05T18:56:51.885Z,30.92
2023-02-05T18:59:21.308Z,31.65
2023-02-05T19:01:49.601Z,32.75
2023-02-05T19:04:18.706Z,37.60
2023-02-05T19:06:50.713Z,37.10
2023-02-05T19:09:19.566Z,38.85
2023-02-05T19:11:49.625Z,37.30
2023-02-05T19:14:18.948Z,41.88
2023-02-05T19:16:47.331Z,43.08
2023-02-05T19:19:16.371Z,43.67
2023-02-05T19:21:45.101Z,43.10
2023-02-05T19:24:14.386Z,38.47
2023-02-05T19:26:43.589Z,38.17
2023-02-05T19:29:15.505Z,39.78
2023-02-05T19:31:43.957Z,41.35
2023-02-05T19:34:12.183Z,41.08
2023-02-05T19:36:40.474Z,42.67
2023-02-05T19:39:10.056Z,44.25
2023-02-05T19:41:38.377Z,44.03
2023-02-05T19:44:07.717Z,42.83
2023-02-05T19:46:38.333Z,44.03
2023-02-05T19:49:07.376Z,45.55
2023-02-05T19:51:35.516Z,46.10
2023-02-05T19:54:04.294Z,47.65
2023-02-05T19:56:35.737Z,45.80
2023-02-05T19:59:04.118Z,46.67
2023-02-05T20:01:33.581Z,48.00
2023-02-05T20:04:08.071Z,49.88
2023-02-05T20:06:36.352Z,49.67
2023-02-05T20:09:05.879Z,48.67
2023-02-05T20:11:34.037Z,49.05
2023-02-05T20:14:02.251Z,51.58
2023-02-05T20:16:30.592Z,49.95
2023-02-05T20:18:59.724Z,50.85
2023-02-05T20:21:30.005Z,51.92
2023-02-05T20:23:58.264Z,49.97
2023-02-05T20:26:26.620Z,51.75
2023-02-05T20:29:13.132Z,50.75
2023-02-05T20:31:43.560Z,49.63
2023-02-05T20:34:18.184Z,53.42
2023-02-05T20:36:48.425Z,49.90
2023-02-05T20:39:18.035Z,51.53
2023-02-05T20:41:46.497Z,50.55
2023-02-05T20:44:14.617Z,49.35
2023-02-05T20:46:42.892Z,50.58
2023-02-05T20:49:11.052Z,50.50
2023-02-05T20:51:39.330Z,50.58
2023-02-05T20:54:09.337Z,50.75
2023-02-05T20:56:37.604Z,50.05
2023-02-05T20:59:07.134Z,50.17
2023-02-05T21:01:36.563Z,49.72
2023-02-05T21:04:05.416Z,48.13
2023-02-05T21:06:35.136Z,46.75
2023-02-05T21:09:03.494Z,47.40
2023-02-05T21:11:33.108Z,46.80
2023-02-05T21:14:03.467Z,45.42
2023-02-05T21:16:32.299Z,45.65
2023-02-05T21:19:00.490Z,44.67
2023-02-05T21:21:29.964Z,44.95
2023-02-05T21:23:59.130Z,43.83
2023-02-05T21:26:28.169Z,43.03
2023-02-05T21:28:58.904Z,42.42
2023-02-05T21:31:33.756Z,42.08
2023-02-05T21:34:02.283Z,42.47
2023-02-05T21:36:30.609Z,41.95
2023-02-05T21:38:58.825Z,41.20
2023-02-05T21:41:26.968Z,40.58
2023-02-05T21:43:57.558Z,40.28
2023-02-05T21:46:26.268Z,39.42
2023-02-05T21:48:55.936Z,38.20
2023-02-05T21:51:26.596Z,38.10
2023-02-05T21:53:57.319Z,37.65
2023-02-05T21:56:25.985Z,38.63
2023-02-05T21:58:54.254Z,37.05
2023-02-05T22:01:24.628Z,37.20
2023-02-05T22:03:53.837Z,37.08
2023-02-05T22:06:23.057Z,35.78
2023-02-05T22:08:51.414Z,36.50
2023-02-05T22:11:20.150Z,36.70
2023-02-05T22:13:49.361Z,34.75
2023-02-05T22:16:18.572Z,35.58
2023-02-05T22:18:48.249Z,34.45
2023-02-05T22:21:17.890Z,34.78
2023-02-05T22:23:48.991Z,33.88
2023-02-05T22:26:17.811Z,33.35
2023-02-05T22:28:46.265Z,33.97
2023-02-05T22:31:15.931Z,33.30
2023-02-05T22:33:45.154Z,32.88
2023-02-05T22:36:19.083Z,32.92
2023-02-05T22:38:47.437Z,32.47
2023-02-05T22:41:16.812Z,31.42
2023-02-05T22:43:44.996Z,32.42
2023-02-05T22:46:14.272Z,31.83
2023-02-05T22:48:43.280Z,31.25
2023-02-05T22:51:13.109Z,31.27
2023-02-05T22:53:42.779Z,29.63
2023-02-05T22:56:12.802Z,29.38
2023-02-05T22:58:42.096Z,29.25
2023-02-05T23:01:10.650Z,27.38
2023-02-05T23:03:39.165Z,28.20
2023-02-05T23:06:11.485Z,28.20
2023-02-05T23:08:39.806Z,28.90
2023-02-05T23:11:10.708Z,28.02
2023-02-05T23:13:38.908Z,26.90
2023-02-05T23:16:08.837Z,28.30
2023-02-05T23:18:37.237Z,28.48
2023-02-05T23:21:08.629Z,26.92
2023-02-05T23:23:36.865Z,27.55
2023-02-05T23:26:11.105Z,26.70
2023-02-05T23:28:39.444Z,25.90
2023-02-05T23:31:07.875Z,25.92
2023-02-05T23:33:36.253Z,25.42
2023-02-05T23:36:05.054Z,25.65
2023-02-05T23:38:33.246Z,25.42
2023-02-05T23:41:01.553Z,24.75
2023-02-05T23:43:32.603Z,24.77
2023-02-05T23:46:00.966Z,23.95
2023-02-05T23:48:29.226Z,24.70
2023-02-05T23:50:59.051Z,23.58
2023-02-05T23:53:27.404Z,25.30
2023-02-05T23:55:55.699Z,23.38
2023-02-05T23:58:26.150Z,22.88
